Beulaville, North Carolina
Current Conditions -  °F | °C
As of 2:35 PM on Monday 22 Dec 2014 (Local Time) from KOAJ Reporting Station
Overcast Overcast  
Wind Chill: 40°   Ceiling: 500
Heat Index: 45°   Visibility: 5mi
Dew Point: 43°   Wind: 8mph
Humidity: 93%   Direction: 340°NNW
Pressure: 30.01"   Gusts: NA
Location:  34.92°N, 77.77°W
Report Text: KOAJ 221935Z AUTO 34007KT 5SM OVC005 07/06 A3001 RMK AO1
Loading
Personal Weather Stations






























Interactive Weather Map New forecast layout! Learn more

10-Day Weather Forecast

Advertisements
Track Severe Weather on mobile